This is the latest recevied weather packets stored in our database for station/object SQ2CET-13. If no packets are shown the sender has not sent any weather packets the latest 10 day(s).
| Time | Temp. | Humidity | Pressure | Rain* | Wind** | Luminosity | Snow |
|---|---|---|---|---|---|---|---|
| 1777836058 | 17.22° C | 62% | 1012.6 hPa | 0 mm | - | 0 W/m² | - |
| 1777833682 | 17.78° C | 60% | 1012.3 hPa | 0 mm | - | 0 W/m² | - |
| 1777830661 | 21.67° C | 44% | 1012.1 hPa | 0 mm | - | 16 W/m² | - |
| 1777828227 | 22.78° C | 41% | 1012.1 hPa | 0 mm | - | 43 W/m² | - |
| 1777827076 | 23.89° C | 39% | 1012.2 hPa | 0 mm | - | 42 W/m² | - |
| 1777822850 | 27.22° C | 32% | 1012.2 hPa | 0 mm | - | 72 W/m² | - |
| 1777820469 | 28.33° C | 31% | 1012.3 hPa | 0 mm | - | 278 W/m² | - |
| 1777816908 | 27.78° C | 31% | 1012.5 hPa | 0 mm | - | 280 W/m² | - |
| 1777813271 | 28.33° C | 25% | 1012.8 hPa | 0 mm | - | 502 W/m² | - |
| 1777812034 | 27.78° C | 25% | 1013 hPa | 0 mm | - | 484 W/m² | - |
| 1777804864 | 26.11° C | 28% | 1013.8 hPa | 0 mm | - | 585 W/m² | - |
| 1777800026 | 24.44° C | 31% | 1014.4 hPa | 0 mm | - | 695 W/m² | - |
| 1777798859 | 23.89° C | 32% | 1014.5 hPa | 0 mm | - | 709 W/m² | - |
| 1777798219 | 24.44° C | 32% | 1014.5 hPa | 0 mm | - | 698 W/m² | - |
| 1777795277 | 22.78° C | 34% | 1014.9 hPa | 0 mm | - | 593 W/m² | - |
| 1777793475 | 21.67° C | 36% | 1015 hPa | 0 mm | - | 580 W/m² | - |
| 1777791676 | 20° C | 41% | 1015 hPa | 0 mm | - | 376 W/m² | - |
| 1777789870 | 19.44° C | 43% | 1015 hPa | 0 mm | - | 253 W/m² | - |
| 1777787428 | 17.78° C | 46% | 1015.3 hPa | 0 mm | - | 174 W/m² | - |
| 1777786851 | 17.78° C | 47% | 1015.2 hPa | 0 mm | - | 152 W/m² | - |
| 1777786275 | 17.22° C | 48% | 1015.3 hPa | 0 mm | - | 160 W/m² | - |
| 1777779043 | 14.44° C | 54% | 1015.4 hPa | 0 mm | - | 13 W/m² | - |
| 1777778468 | 14.44° C | 55% | 1015.5 hPa | 0 mm | - | 7 W/m² | - |
| 1777771876 | 15.56° C | 53% | 1015.9 hPa | 0 mm | - | 0 W/m² | - |
| 1777769429 | 15.56° C | 53% | 1016.2 hPa | 0 mm | - | 0 W/m² | - |
* Rain latest hour (hover to see other rain measurements)
** Current wind speed in m/s (hover to see current wind gust speed)